createdAt,value
2022-07-25T00:00:31.160Z,76.12
2022-07-25T00:02:59.745Z,76.27
2022-07-25T00:05:32.145Z,76.10
2022-07-25T00:08:02.492Z,76.02
2022-07-25T00:10:30.593Z,75.73
2022-07-25T00:13:06.942Z,75.56
2022-07-25T00:15:34.973Z,75.59
2022-07-25T00:18:03.410Z,75.68
2022-07-25T00:20:31.609Z,76.05
2022-07-25T00:23:02.742Z,76.22
2022-07-25T00:25:30.852Z,76.72
2022-07-25T00:27:59.017Z,76.99
2022-07-25T00:30:28.017Z,76.92
2022-07-25T00:32:56.079Z,77.26
2022-07-25T00:35:24.164Z,77.34
2022-07-25T00:37:58.400Z,77.65
2022-07-25T00:40:26.901Z,77.88
2022-07-25T00:42:55.479Z,78.08
2022-07-25T00:45:23.592Z,77.89
2022-07-25T00:47:51.791Z,77.85
2022-07-25T00:50:25.397Z,78.11
2022-07-25T00:52:54.286Z,78.20
2022-07-25T00:55:23.413Z,78.37
2022-07-25T00:57:51.610Z,78.60
2022-07-25T01:00:19.818Z,78.61
2022-07-25T01:02:48.489Z,78.70
2022-07-25T01:05:18.813Z,78.74
2022-07-25T01:07:47.303Z,78.72
2022-07-25T01:10:15.282Z,78.76
2022-07-25T01:12:54.308Z,78.84
2022-07-25T01:15:24.215Z,78.92
2022-07-25T01:17:53.114Z,78.92
2022-07-25T01:20:26.668Z,79.08
2022-07-25T01:22:55.159Z,79.07
2022-07-25T01:25:24.056Z,79.35
2022-07-25T01:27:55.843Z,79.63
2022-07-25T01:30:25.394Z,79.73
2022-07-25T01:32:56.457Z,80.07
2022-07-25T01:35:24.606Z,80.04
2022-07-25T01:37:55.022Z,79.82
2022-07-25T01:40:23.265Z,79.82
2022-07-25T01:42:54.483Z,79.75
2022-07-25T01:45:24.235Z,79.65
2022-07-25T01:47:52.489Z,79.76
2022-07-25T01:50:20.570Z,79.61
2022-07-25T01:52:48.673Z,79.49
2022-07-25T01:55:24.387Z,79.58
2022-07-25T01:57:53.447Z,79.51
2022-07-25T02:00:21.679Z,79.96
2022-07-25T02:03:19.559Z,79.99
2022-07-25T02:05:47.617Z,80.06
2022-07-25T02:08:15.689Z,80.26
2022-07-25T02:10:45.133Z,80.41
2022-07-25T02:13:13.076Z,80.48
2022-07-25T02:15:41.281Z,80.25
2022-07-25T02:18:09.568Z,80.16
2022-07-25T02:20:37.978Z,79.99
2022-07-25T02:23:06.218Z,80.09
2022-07-25T02:25:34.793Z,79.34
2022-07-25T02:28:04.350Z,79.29
2022-07-25T02:30:32.559Z,79.08
2022-07-25T02:33:00.569Z,78.98
2022-07-25T02:35:31.679Z,78.93
2022-07-25T02:38:00.145Z,78.62
2022-07-25T02:40:28.262Z,78.79
2022-07-25T02:43:01.650Z,78.84
2022-07-25T02:45:29.684Z,78.98
2022-07-25T02:47:57.854Z,79.05
2022-07-25T02:50:25.737Z,79.28
2022-07-25T02:52:53.765Z,78.94
2022-07-25T02:55:22.553Z,78.83
2022-07-25T02:57:55.202Z,78.98
2022-07-25T03:00:24.035Z,78.92
2022-07-25T03:02:52.242Z,79.14
2022-07-25T03:05:23.346Z,79.25
2022-07-25T03:07:51.333Z,79.42
2022-07-25T03:10:19.509Z,79.65
2022-07-25T03:12:47.662Z,79.61
2022-07-25T03:15:15.767Z,79.82
2022-07-25T03:17:49.074Z,80.05
2022-07-25T03:20:17.036Z,80.30
2022-07-25T03:22:45.304Z,80.49
2022-07-25T03:25:21.464Z,80.90
2022-07-25T03:27:50.882Z,80.95
2022-07-25T03:30:19.010Z,80.94
2022-07-25T03:32:50.249Z,81.00
2022-07-25T03:35:18.593Z,81.22
2022-07-25T03:37:46.928Z,81.33
2022-07-25T03:40:15.900Z,81.08
2022-07-25T03:42:49.933Z,81.35
2022-07-25T03:45:17.960Z,81.61
2022-07-25T03:47:46.097Z,81.59
2022-07-25T03:50:14.083Z,81.56
2022-07-25T03:52:42.500Z,81.52
2022-07-25T03:55:12.460Z,81.49
2022-07-25T03:57:40.560Z,81.39
2022-07-25T04:00:10.599Z,81.33
2022-07-25T04:02:38.850Z,81.31
2022-07-25T04:05:08.323Z,81.10
2022-07-25T04:07:36.998Z,81.24
2022-07-25T04:10:08.354Z,81.02
2022-07-25T04:12:36.615Z,80.87
2022-07-25T04:15:07.522Z,80.50
2022-07-25T04:17:35.552Z,80.34
2022-07-25T04:20:08.528Z,80.14
2022-07-25T04:22:37.072Z,80.04
2022-07-25T04:25:06.504Z,79.81
2022-07-25T04:27:35.069Z,79.25
2022-07-25T04:30:03.189Z,77.82
2022-07-25T04:32:31.171Z,77.33
2022-07-25T04:34:59.205Z,76.80
2022-07-25T04:37:27.795Z,77.00
2022-07-25T04:39:56.162Z,77.09
2022-07-25T04:42:26.907Z,77.07
2022-07-25T04:44:56.198Z,76.46
2022-07-25T04:47:24.380Z,75.91
2022-07-25T04:49:53.276Z,75.77
2022-07-25T04:52:21.379Z,75.49
2022-07-25T04:54:49.690Z,74.61
2022-07-25T04:57:17.625Z,73.81
2022-07-25T04:59:46.076Z,72.92
2022-07-25T05:02:14.292Z,72.54
2022-07-25T05:04:45.329Z,71.57
2022-07-25T05:07:13.799Z,71.39
2022-07-25T05:09:41.841Z,71.47
2022-07-25T05:12:10.325Z,71.71
2022-07-25T05:14:39.098Z,70.29
2022-07-25T05:17:10.309Z,70.66
2022-07-25T05:19:41.426Z,69.56
2022-07-25T05:22:09.446Z,69.48
2022-07-25T05:24:37.843Z,68.74
2022-07-25T05:27:06.120Z,68.99
2022-07-25T05:29:34.382Z,68.18
2022-07-25T05:32:03.234Z,66.61
2022-07-25T05:34:34.617Z,64.83
2022-07-25T05:37:02.667Z,63.63
2022-07-25T05:39:30.764Z,62.10
2022-07-25T05:41:58.861Z,61.93
2022-07-25T05:44:26.817Z,61.35
2022-07-25T05:46:54.930Z,60.12
2022-07-25T05:49:23.147Z,57.83
2022-07-25T05:51:53.572Z,57.34
2022-07-25T05:54:21.546Z,56.64
2022-07-25T05:56:49.723Z,54.95
2022-07-25T05:59:21.554Z,51.55
2022-07-25T06:01:49.794Z,50.78
2022-07-25T06:04:18.351Z,48.78
2022-07-25T06:06:51.225Z,50.41
2022-07-25T06:09:23.359Z,50.12
2022-07-25T06:11:59.952Z,49.90
2022-07-25T06:14:29.001Z,48.07
2022-07-25T06:16:57.738Z,49.63
2022-07-25T06:19:25.842Z,52.31
2022-07-25T06:21:53.759Z,52.97
2022-07-25T06:24:21.644Z,53.04
2022-07-25T06:26:49.637Z,52.75
2022-07-25T06:29:17.603Z,51.90
2022-07-25T06:31:46.492Z,52.49
2022-07-25T06:34:15.410Z,52.79
2022-07-25T06:36:43.374Z,53.34
2022-07-25T06:39:11.433Z,53.73
2022-07-25T06:41:39.392Z,53.87
2022-07-25T06:44:07.955Z,54.85
2022-07-25T06:46:36.339Z,55.40
2022-07-25T06:49:05.510Z,56.23
2022-07-25T06:51:34.262Z,57.15
2022-07-25T06:54:02.848Z,58.25
2022-07-25T06:56:32.877Z,58.56
2022-07-25T06:59:01.305Z,57.73
2022-07-25T07:01:30.318Z,56.50
2022-07-25T07:03:58.850Z,55.04
2022-07-25T07:06:26.861Z,57.06
2022-07-25T07:08:56.076Z,57.43
2022-07-25T07:11:24.082Z,54.66
2022-07-25T07:13:52.247Z,53.23
2022-07-25T07:16:20.326Z,51.87
2022-07-25T07:18:49.497Z,50.40
2022-07-25T07:21:21.546Z,48.87
2022-07-25T07:23:53.528Z,46.74
2022-07-25T07:26:22.483Z,47.66
2022-07-25T07:28:50.573Z,48.04
2022-07-25T07:31:18.895Z,46.02
2022-07-25T07:33:47.030Z,45.43
2022-07-25T07:36:14.892Z,45.44
2022-07-25T07:38:44.492Z,48.51
2022-07-25T07:41:12.853Z,50.27
2022-07-25T07:43:41.828Z,49.77
2022-07-25T07:46:09.876Z,50.36
2022-07-25T07:48:38.077Z,50.75
2022-07-25T07:51:06.304Z,51.42
2022-07-25T07:53:52.968Z,51.61
2022-07-25T07:56:21.304Z,50.67
2022-07-25T07:58:49.209Z,51.06
2022-07-25T08:01:17.533Z,50.41
2022-07-25T08:03:45.401Z,50.50
2022-07-25T08:06:13.475Z,49.68
2022-07-25T08:08:41.286Z,51.01
2022-07-25T08:11:09.215Z,50.95
2022-07-25T08:13:38.298Z,51.09
2022-07-25T08:16:06.995Z,50.97
2022-07-25T08:18:39.467Z,51.14
2022-07-25T08:21:07.587Z,51.22
2022-07-25T08:23:38.626Z,51.55
2022-07-25T08:26:07.656Z,52.20
2022-07-25T08:28:37.535Z,52.83
2022-07-25T08:31:05.643Z,53.61
2022-07-25T08:33:33.696Z,54.04
2022-07-25T08:36:04.192Z,54.31
2022-07-25T08:38:32.264Z,54.50
2022-07-25T08:41:00.741Z,54.29
2022-07-25T08:43:33.193Z,53.68
2022-07-25T08:46:02.235Z,53.07
2022-07-25T08:48:31.253Z,52.12
2022-07-25T08:51:02.053Z,52.05
2022-07-25T08:53:33.578Z,52.08
2022-07-25T08:56:12.575Z,51.44
2022-07-25T08:58:44.095Z,51.26
2022-07-25T09:01:14.982Z,50.62
2022-07-25T09:03:44.215Z,51.24
2022-07-25T09:06:20.642Z,51.23
2022-07-25T09:08:57.923Z,52.01
2022-07-25T09:11:33.169Z,52.13
2022-07-25T09:14:05.285Z,51.98
2022-07-25T09:16:35.725Z,52.20
2022-07-25T09:19:18.528Z,53.01
2022-07-25T09:21:59.573Z,54.64
2022-07-25T09:24:28.907Z,56.46
2022-07-25T09:27:04.641Z,57.79
2022-07-25T09:29:34.141Z,60.46
2022-07-25T09:32:13.426Z,60.40
2022-07-25T09:34:43.243Z,61.05
2022-07-25T09:37:14.162Z,61.43
2022-07-25T09:39:47.120Z,61.59
2022-07-25T09:42:22.156Z,60.13
2022-07-25T09:45:03.064Z,59.39
2022-07-25T09:47:32.707Z,59.13
2022-07-25T09:50:01.663Z,58.05
2022-07-25T09:52:29.875Z,57.08
2022-07-25T09:54:58.010Z,55.32
2022-07-25T09:57:27.500Z,54.23
2022-07-25T09:59:56.245Z,53.64
2022-07-25T10:02:48.522Z,54.00
2022-07-25T10:05:22.545Z,54.74
2022-07-25T10:07:54.086Z,55.37
2022-07-25T10:10:31.269Z,55.96
2022-07-25T10:13:29.463Z,54.54
2022-07-25T10:15:58.543Z,53.20
2022-07-25T10:18:29.000Z,53.32
2022-07-25T10:21:25.626Z,53.30
2022-07-25T10:24:06.350Z,55.02
2022-07-25T10:26:53.125Z,56.23
2022-07-25T10:29:21.049Z,58.21
2022-07-25T10:31:51.375Z,58.84
2022-07-25T10:34:31.559Z,57.47
2022-07-25T10:37:14.398Z,56.48
2022-07-25T10:39:45.447Z,56.74
2022-07-25T10:42:15.612Z,56.09
2022-07-25T10:44:46.599Z,55.67
2022-07-25T10:47:16.519Z,55.60
2022-07-25T10:50:15.247Z,54.47
2022-07-25T10:52:48.982Z,51.83
2022-07-25T10:55:23.921Z,51.72
2022-07-25T10:58:17.748Z,53.09
2022-07-25T11:00:46.269Z,54.07
2022-07-25T11:03:18.413Z,54.34
2022-07-25T11:05:51.927Z,55.47
2022-07-25T11:08:30.798Z,55.98
2022-07-25T11:10:59.646Z,55.34
2022-07-25T11:13:28.552Z,54.99
2022-07-25T11:15:59.779Z,54.50
2022-07-25T11:18:39.629Z,54.87
2022-07-25T11:21:09.367Z,54.58
2022-07-25T11:23:37.724Z,54.90
2022-07-25T11:26:13.193Z,56.71
2022-07-25T11:28:43.893Z,57.33
2022-07-25T11:31:14.873Z,57.76
2022-07-25T11:33:45.992Z,57.63
2022-07-25T11:36:14.353Z,57.04
2022-07-25T11:38:47.165Z,56.85
2022-07-25T11:41:15.313Z,56.91
2022-07-25T11:43:50.843Z,57.33
2022-07-25T11:46:18.883Z,56.96
2022-07-25T11:48:47.768Z,55.72
2022-07-25T11:51:19.492Z,56.75
2022-07-25T11:53:50.804Z,55.56
2022-07-25T11:56:41.772Z,56.46
2022-07-25T11:59:12.020Z,56.60
2022-07-25T12:01:42.644Z,56.98
2022-07-25T12:04:18.967Z,57.50
2022-07-25T12:06:48.649Z,58.00
2022-07-25T12:09:19.779Z,59.37
2022-07-25T12:11:49.804Z,57.19
2022-07-25T12:14:18.121Z,56.48
2022-07-25T12:16:48.174Z,54.39
2022-07-25T12:19:21.079Z,53.95
2022-07-25T12:21:49.395Z,52.33
2022-07-25T12:24:20.257Z,52.21
2022-07-25T12:26:48.477Z,52.90
2022-07-25T12:29:16.483Z,53.27
2022-07-25T12:31:44.489Z,53.38
2022-07-25T12:34:12.593Z,53.74
2022-07-25T12:36:44.795Z,52.76
2022-07-25T12:39:12.652Z,52.38
2022-07-25T12:41:42.662Z,52.58
2022-07-25T12:44:11.122Z,53.19
2022-07-25T12:46:47.239Z,54.50
2022-07-25T12:49:17.802Z,56.54
2022-07-25T12:51:48.517Z,58.67
2022-07-25T12:54:22.233Z,60.41
2022-07-25T12:56:51.571Z,61.63
2022-07-25T12:59:20.005Z,62.30
2022-07-25T13:01:50.652Z,64.40
2022-07-25T13:04:18.703Z,64.26
2022-07-25T13:06:46.783Z,63.30
2022-07-25T13:09:14.653Z,63.40
2022-07-25T13:11:42.745Z,62.92
2022-07-25T13:14:10.924Z,62.88
2022-07-25T13:16:39.128Z,63.66
2022-07-25T13:19:08.005Z,63.82
2022-07-25T13:21:37.829Z,62.28
2022-07-25T13:24:07.449Z,62.44
2022-07-25T13:26:36.927Z,62.22
2022-07-25T13:29:12.489Z,61.92
2022-07-25T13:31:44.075Z,61.15
2022-07-25T13:34:12.297Z,60.24
2022-07-25T13:36:40.363Z,59.87
2022-07-25T13:39:08.848Z,58.95
2022-07-25T13:41:39.546Z,58.04
2022-07-25T13:44:08.908Z,57.03
2022-07-25T13:46:36.816Z,55.44
2022-07-25T13:49:05.181Z,55.48
2022-07-25T13:51:33.742Z,55.31
2022-07-25T13:54:02.356Z,55.18
2022-07-25T13:56:33.359Z,54.60
2022-07-25T13:59:08.138Z,54.37
2022-07-25T14:01:36.987Z,53.54
2022-07-25T14:04:04.986Z,52.81
2022-07-25T14:06:35.843Z,53.08
2022-07-25T14:09:06.705Z,52.45
2022-07-25T14:11:37.803Z,51.71
2022-07-25T14:14:06.668Z,51.84
2022-07-25T14:16:37.065Z,51.33
2022-07-25T14:19:08.679Z,51.73
2022-07-25T14:21:39.125Z,51.61
2022-07-25T14:24:07.843Z,52.44
2022-07-25T14:26:39.463Z,52.28
2022-07-25T14:29:11.147Z,52.21
2022-07-25T14:31:39.914Z,51.73
2022-07-25T14:34:08.107Z,51.00
2022-07-25T14:36:36.703Z,52.02
2022-07-25T14:39:05.838Z,52.38
2022-07-25T14:41:40.275Z,51.76
2022-07-25T14:44:09.860Z,51.72
2022-07-25T14:46:41.959Z,52.42
2022-07-25T14:49:14.511Z,52.65
2022-07-25T14:51:45.243Z,52.55
2022-07-25T14:54:13.713Z,52.72
2022-07-25T14:56:48.076Z,52.51
2022-07-25T14:59:18.565Z,52.35
2022-07-25T15:01:49.830Z,51.96
2022-07-25T15:04:22.004Z,52.33
2022-07-25T15:06:50.038Z,52.00
2022-07-25T15:09:19.207Z,52.32
2022-07-25T15:11:47.993Z,50.86
2022-07-25T15:14:19.654Z,50.74
2022-07-25T15:16:48.118Z,50.44
2022-07-25T15:19:17.323Z,51.47
2022-07-25T15:21:46.930Z,52.03
2022-07-25T15:24:15.431Z,52.13
2022-07-25T15:26:43.593Z,52.25
2022-07-25T15:29:20.509Z,52.72
2022-07-25T15:31:51.735Z,52.31
2022-07-25T15:34:19.900Z,51.35
2022-07-25T15:36:48.693Z,49.64
2022-07-25T15:39:16.700Z,49.45
2022-07-25T15:41:47.471Z,48.75
2022-07-25T15:44:17.736Z,48.56
2022-07-25T15:46:46.548Z,46.82
2022-07-25T15:49:15.953Z,46.55
2022-07-25T15:51:44.264Z,45.96
2022-07-25T15:54:12.698Z,46.14
2022-07-25T15:56:40.947Z,45.56
2022-07-25T15:59:12.795Z,45.81
2022-07-25T16:01:42.853Z,45.12
2022-07-25T16:04:11.165Z,45.17
2022-07-25T16:06:42.747Z,44.86
2022-07-25T16:09:14.569Z,45.22
2022-07-25T16:11:45.551Z,45.01
2022-07-25T16:14:13.555Z,45.22
2022-07-25T16:16:44.949Z,45.28
2022-07-25T16:19:13.443Z,45.71
2022-07-25T16:21:41.796Z,46.09
2022-07-25T16:24:11.090Z,46.93
2022-07-25T16:26:39.236Z,47.09
2022-07-25T16:29:08.202Z,47.49
2022-07-25T16:31:39.252Z,47.81
2022-07-25T16:34:07.690Z,48.23
2022-07-25T16:36:37.036Z,48.28
2022-07-25T16:39:05.484Z,47.94
2022-07-25T16:41:34.034Z,47.70
2022-07-25T16:44:02.014Z,47.94
2022-07-25T16:46:30.546Z,47.79
2022-07-25T16:48:59.077Z,48.51
2022-07-25T16:51:33.060Z,48.97
2022-07-25T16:54:03.617Z,49.22
2022-07-25T16:56:32.458Z,49.23
2022-07-25T16:59:00.995Z,48.89
2022-07-25T17:01:29.213Z,49.44
2022-07-25T17:04:02.364Z,50.25
2022-07-25T17:06:31.146Z,50.17
2022-07-25T17:08:59.690Z,50.68
2022-07-25T17:11:28.843Z,50.69
2022-07-25T17:13:57.207Z,51.12
2022-07-25T17:16:25.509Z,51.14
2022-07-25T17:18:54.195Z,51.55
2022-07-25T17:21:22.743Z,51.79
2022-07-25T17:23:53.122Z,50.71
2022-07-25T17:26:22.537Z,51.19
2022-07-25T17:28:50.811Z,52.02
2022-07-25T17:31:19.557Z,52.47
2022-07-25T17:33:47.986Z,52.71
2022-07-25T17:36:16.736Z,52.78
2022-07-25T17:38:44.992Z,53.82
2022-07-25T17:41:13.162Z,53.53
2022-07-25T17:43:41.422Z,54.39
2022-07-25T17:46:13.387Z,54.19
2022-07-25T17:48:42.514Z,54.93
2022-07-25T17:51:10.997Z,55.28
2022-07-25T17:53:39.340Z,55.42
2022-07-25T17:56:11.116Z,55.49
2022-07-25T17:58:41.156Z,55.52
2022-07-25T18:01:12.540Z,56.04
2022-07-25T18:03:47.902Z,55.80
2022-07-25T18:06:18.845Z,56.20
2022-07-25T18:08:46.870Z,56.30
2022-07-25T18:11:15.423Z,55.64
2022-07-25T18:13:43.675Z,55.16
2022-07-25T18:16:11.821Z,55.36
2022-07-25T18:18:40.957Z,56.75
2022-07-25T18:21:09.418Z,56.38
2022-07-25T18:23:38.309Z,56.38
2022-07-25T18:26:06.534Z,56.27
2022-07-25T18:28:35.510Z,56.91
2022-07-25T18:31:04.807Z,56.35
2022-07-25T18:33:32.862Z,56.74
2022-07-25T18:36:07.642Z,57.11
2022-07-25T18:38:36.976Z,57.26
2022-07-25T18:43:59.064Z,58.97
2022-07-25T18:46:36.928Z,58.83
2022-07-25T18:49:05.826Z,58.63
2022-07-25T18:51:37.165Z,59.10
2022-07-25T18:54:06.695Z,59.65
2022-07-25T18:56:36.596Z,59.70
2022-07-25T18:59:05.274Z,59.86
2022-07-25T19:01:33.590Z,60.36
2022-07-25T19:04:01.740Z,61.12
2022-07-25T19:06:32.481Z,60.58
2022-07-25T19:09:00.660Z,61.39
2022-07-25T19:11:33.360Z,61.07
2022-07-25T19:14:04.148Z,60.82
2022-07-25T19:16:32.823Z,61.50
2022-07-25T19:19:02.076Z,60.59
2022-07-25T19:21:30.466Z,60.16
2022-07-25T19:23:59.130Z,61.79
2022-07-25T19:26:27.513Z,61.68
2022-07-25T19:28:55.989Z,61.88
2022-07-25T19:31:24.083Z,61.75
2022-07-25T19:33:52.819Z,61.74
2022-07-25T19:36:22.871Z,61.31
2022-07-25T19:38:52.742Z,62.34
2022-07-25T19:41:20.945Z,63.02
2022-07-25T19:43:53.306Z,63.43
2022-07-25T19:46:21.614Z,63.74
2022-07-25T19:48:50.269Z,63.55
2022-07-25T19:51:19.308Z,63.81
2022-07-25T19:53:47.352Z,63.96
2022-07-25T19:56:15.489Z,64.00
2022-07-25T19:58:45.124Z,64.55
2022-07-25T20:01:13.778Z,64.19
2022-07-25T20:03:41.979Z,65.01
2022-07-25T20:06:10.160Z,65.21
2022-07-25T20:08:39.661Z,65.15
2022-07-25T20:11:08.347Z,64.66
2022-07-25T20:13:36.731Z,65.14
2022-07-25T20:16:05.455Z,64.52
2022-07-25T20:18:34.163Z,64.70
2022-07-25T20:21:05.412Z,64.95
2022-07-25T20:23:34.226Z,65.09
2022-07-25T20:26:02.933Z,65.27
2022-07-25T20:28:31.287Z,65.35
2022-07-25T20:30:59.620Z,65.27
2022-07-25T20:33:28.034Z,65.94
2022-07-25T20:35:56.194Z,65.55
2022-07-25T20:38:28.694Z,66.14
2022-07-25T20:40:56.912Z,66.37
2022-07-25T20:43:29.752Z,66.80
2022-07-25T20:45:58.075Z,67.25
2022-07-25T20:48:26.692Z,67.63
2022-07-25T20:50:55.287Z,68.00
2022-07-25T20:53:24.648Z,68.58
2022-07-25T20:55:52.669Z,68.84
2022-07-25T20:58:24.036Z,69.11
2022-07-25T21:00:55.728Z,68.92
2022-07-25T21:03:24.208Z,69.71
2022-07-25T21:05:52.286Z,69.31
2022-07-25T21:08:20.551Z,69.71
2022-07-25T21:10:48.608Z,70.60
2022-07-25T21:13:18.489Z,69.50
2022-07-25T21:15:47.482Z,70.90
2022-07-25T21:18:15.544Z,70.73
2022-07-25T21:20:47.219Z,70.34
2022-07-25T21:23:15.567Z,71.27
2022-07-25T21:25:44.264Z,71.22
2022-07-25T21:28:12.435Z,72.97
2022-07-25T21:30:43.690Z,73.86
2022-07-25T21:33:14.754Z,74.94
2022-07-25T21:35:52.026Z,75.58
2022-07-25T21:38:26.947Z,76.13
2022-07-25T21:40:57.802Z,76.53
2022-07-25T21:43:26.898Z,76.88
2022-07-25T21:45:56.077Z,77.14
2022-07-25T21:48:50.056Z,77.56
2022-07-25T21:51:19.194Z,77.79
2022-07-25T21:53:52.756Z,78.15
2022-07-25T21:56:21.481Z,78.34
2022-07-25T21:58:49.649Z,78.55
2022-07-25T22:01:20.759Z,78.81
2022-07-25T22:03:48.943Z,78.97
2022-07-25T22:06:17.639Z,79.51
2022-07-25T22:08:48.488Z,78.95
2022-07-25T22:11:38.406Z,78.15
2022-07-25T22:14:08.898Z,78.55
2022-07-25T22:16:37.083Z,79.26
2022-07-25T22:19:05.746Z,79.58
2022-07-25T22:21:34.391Z,79.72
2022-07-25T22:24:02.477Z,79.56
2022-07-25T22:26:30.424Z,78.92
2022-07-25T22:29:01.707Z,79.23
2022-07-25T22:31:32.763Z,80.00
2022-07-25T22:34:03.760Z,80.75
2022-07-25T22:36:31.872Z,80.55
2022-07-25T22:38:59.971Z,80.88
2022-07-25T22:41:28.492Z,80.98
2022-07-25T22:43:59.616Z,81.72
2022-07-25T22:46:29.853Z,80.98
2022-07-25T22:48:58.930Z,81.12
2022-07-25T22:51:29.127Z,81.53
2022-07-25T22:54:02.081Z,81.49
2022-07-25T22:56:30.234Z,81.71
2022-07-25T22:58:58.826Z,82.12
2022-07-25T23:01:33.519Z,82.10
2022-07-25T23:04:01.990Z,82.06
2022-07-25T23:06:30.099Z,81.39
2022-07-25T23:08:58.039Z,81.89
2022-07-25T23:11:30.258Z,81.82
2022-07-25T23:13:58.358Z,82.20
2022-07-25T23:16:33.159Z,82.46
2022-07-25T23:19:04.536Z,81.93
2022-07-25T23:21:32.964Z,82.77
2022-07-25T23:24:01.405Z,83.02
2022-07-25T23:26:35.077Z,83.43
2022-07-25T23:29:05.866Z,83.59
2022-07-25T23:31:34.754Z,83.21
2022-07-25T23:34:04.787Z,83.62
2022-07-25T23:36:32.772Z,83.61
2022-07-25T23:39:00.806Z,83.48
2022-07-25T23:41:31.360Z,83.52
2022-07-25T23:44:00.675Z,83.63
2022-07-25T23:46:31.035Z,83.97
2022-07-25T23:49:00.358Z,83.78
2022-07-25T23:51:28.920Z,84.15
2022-07-25T23:53:57.777Z,84.27
2022-07-25T23:56:26.169Z,84.53
2022-07-25T23:58:54.124Z,84.35
